createdAt,value
2022-11-20T00:02:58.767Z,27.57
2022-11-20T00:06:02.699Z,30.00
2022-11-20T00:09:06.515Z,26.00
2022-11-20T00:12:08.546Z,30.33
2022-11-20T00:15:11.291Z,29.53
2022-11-20T00:18:15.503Z,29.37
2022-11-20T00:21:20.703Z,34.07
2022-11-20T00:24:24.526Z,30.00
2022-11-20T00:27:27.056Z,32.30
2022-11-20T00:30:29.219Z,29.83
2022-11-20T00:33:31.701Z,28.10
2022-11-20T00:36:34.966Z,29.60
2022-11-20T00:39:37.026Z,31.03
2022-11-20T00:42:39.552Z,28.63
2022-11-20T00:45:41.667Z,29.77
2022-11-20T00:48:45.253Z,32.63
2022-11-20T00:51:47.364Z,30.07
2022-11-20T00:54:49.573Z,30.00
2022-11-20T00:57:51.634Z,29.33
2022-11-20T01:00:54.863Z,30.33
2022-11-20T01:04:02.521Z,29.47
2022-11-20T01:07:05.658Z,28.93
2022-11-20T01:10:08.486Z,33.77
2022-11-20T01:13:29.196Z,25.70
2022-11-20T01:16:39.883Z,31.73
2022-11-20T01:19:41.964Z,33.57
2022-11-20T01:22:44.096Z,31.30
2022-11-20T01:25:46.258Z,31.77
2022-11-20T01:28:49.139Z,27.50
2022-11-20T01:31:52.637Z,33.07
2022-11-20T01:34:54.716Z,26.13
2022-11-20T01:37:56.826Z,35.43
2022-11-20T01:40:58.847Z,29.73
2022-11-20T01:44:01.543Z,30.63
2022-11-20T01:47:08.307Z,26.73
2022-11-20T01:50:26.250Z,25.77
2022-11-20T01:53:33.376Z,26.27
2022-11-20T01:56:39.971Z,30.67
2022-11-20T01:59:49.193Z,30.13
2022-11-20T02:02:59.815Z,30.33
2022-11-20T02:06:17.600Z,30.20
2022-11-20T02:09:19.801Z,31.47
2022-11-20T02:12:40.668Z,33.10
2022-11-20T02:15:43.546Z,28.80
2022-11-20T02:18:47.168Z,32.70
2022-11-20T02:21:53.969Z,31.13
2022-11-20T02:24:56.345Z,30.53
2022-11-20T02:27:58.470Z,29.77
2022-11-20T02:31:00.563Z,29.97
2022-11-20T02:34:02.686Z,32.73
2022-11-20T02:37:04.892Z,30.30
2022-11-20T02:40:07.704Z,31.90
2022-11-20T02:43:10.660Z,30.13
2022-11-20T02:46:12.819Z,33.60
2022-11-20T02:49:16.231Z,33.83
2022-11-20T02:52:18.653Z,30.93
2022-11-20T02:55:20.776Z,30.70
2022-11-20T02:58:22.920Z,31.87
2022-11-20T03:01:26.372Z,30.93
2022-11-20T03:04:28.517Z,34.70
2022-11-20T03:07:30.744Z,32.47
2022-11-20T03:10:33.068Z,36.03
2022-11-20T03:13:36.513Z,33.37
2022-11-20T03:16:38.831Z,34.47
2022-11-20T03:19:41.589Z,36.83
2022-11-20T03:22:43.657Z,35.83
2022-11-20T03:25:46.174Z,33.63
2022-11-20T03:28:53.217Z,37.20
2022-11-20T03:31:55.350Z,36.40
2022-11-20T03:34:57.383Z,34.20
2022-11-20T03:37:59.432Z,37.17
2022-11-20T03:41:07.241Z,32.97
2022-11-20T03:44:11.521Z,36.57
2022-11-20T03:47:13.626Z,34.67
2022-11-20T03:50:15.872Z,37.10
2022-11-20T03:53:18.217Z,35.07
2022-11-20T03:56:23.640Z,38.03
2022-11-20T03:59:25.668Z,33.47
2022-11-20T04:02:27.789Z,34.30
2022-11-20T04:05:30.019Z,35.87
2022-11-20T04:08:32.534Z,36.03
2022-11-20T04:11:37.227Z,32.33
2022-11-20T04:14:39.940Z,35.83
2022-11-20T04:17:42.009Z,35.40
2022-11-20T04:20:44.052Z,34.17
2022-11-20T04:23:46.174Z,33.90
2022-11-20T04:26:48.321Z,37.07
2022-11-20T04:29:50.403Z,36.33
2022-11-20T04:32:53.367Z,39.93
2022-11-20T04:36:03.467Z,31.93
2022-11-20T04:39:07.926Z,37.30
2022-11-20T04:42:29.568Z,34.07
2022-11-20T04:45:31.762Z,32.20
2022-11-20T04:48:33.807Z,31.17
2022-11-20T04:51:36.484Z,32.87
2022-11-20T04:54:38.644Z,34.70
2022-11-20T04:57:40.831Z,30.60
2022-11-20T05:00:42.909Z,33.13
2022-11-20T05:03:46.207Z,37.37
2022-11-20T05:06:48.317Z,33.20
2022-11-20T05:09:50.354Z,34.17
2022-11-20T05:12:52.437Z,27.90
2022-11-20T05:15:54.760Z,36.70
2022-11-20T05:18:57.273Z,33.77
2022-11-20T05:21:59.340Z,31.87
2022-11-20T05:25:01.365Z,32.37
2022-11-20T05:28:03.508Z,34.27
2022-11-20T05:31:10.327Z,31.97
2022-11-20T05:34:12.450Z,32.40
2022-11-20T05:37:14.466Z,36.83
2022-11-20T05:40:16.594Z,33.23
2022-11-20T05:43:18.718Z,33.00
2022-11-20T05:46:27.727Z,35.30
2022-11-20T05:49:30.578Z,36.30
2022-11-20T05:52:32.658Z,36.87
2022-11-20T05:55:34.719Z,35.43
2022-11-20T05:58:36.920Z,39.57
2022-11-20T06:01:38.950Z,36.27
2022-11-20T06:04:41.181Z,38.97
2022-11-20T06:07:43.301Z,41.00
2022-11-20T06:10:45.408Z,32.77
2022-11-20T06:13:48.262Z,35.03
2022-11-20T06:16:50.356Z,35.57
2022-11-20T06:19:52.425Z,35.07
2022-11-20T06:22:54.512Z,38.57
2022-11-20T06:25:56.641Z,37.90
2022-11-20T06:28:58.737Z,33.60
2022-11-20T06:32:00.774Z,40.77
2022-11-20T06:35:02.852Z,31.43
2022-11-20T06:38:04.986Z,33.47
2022-11-20T06:41:10.449Z,36.60
2022-11-20T06:44:12.618Z,38.17
2022-11-20T06:47:14.677Z,34.83
2022-11-20T06:50:16.848Z,36.90
2022-11-20T06:53:19.474Z,39.03
2022-11-20T06:56:21.737Z,33.37
2022-11-20T06:59:24.323Z,33.23
2022-11-20T07:02:26.633Z,39.67
2022-11-20T07:05:35.054Z,31.93
2022-11-20T07:08:37.827Z,36.03
2022-11-20T07:11:40.054Z,34.87
2022-11-20T07:14:42.601Z,37.77
2022-11-20T07:17:44.915Z,35.17
2022-11-20T07:20:47.083Z,35.73
2022-11-20T07:23:49.253Z,39.63
2022-11-20T07:26:51.358Z,37.97
2022-11-20T07:29:53.477Z,37.67
2022-11-20T07:32:56.670Z,39.30
2022-11-20T07:36:01.208Z,39.60
2022-11-20T07:39:03.328Z,35.07
2022-11-20T07:42:05.630Z,37.73
2022-11-20T07:45:08.788Z,40.50
2022-11-20T07:48:11.195Z,35.60
2022-11-20T07:51:14.649Z,39.73
2022-11-20T07:54:16.697Z,38.80
2022-11-20T07:57:18.798Z,36.00
2022-11-20T08:00:20.892Z,36.80
2022-11-20T08:03:25.184Z,43.37
2022-11-20T08:06:27.983Z,37.03
2022-11-20T08:09:30.195Z,37.07
2022-11-20T08:12:50.795Z,43.50
2022-11-20T08:15:52.952Z,37.90
2022-11-20T08:18:55.285Z,37.40
2022-11-20T08:21:57.322Z,36.43
2022-11-20T08:24:59.376Z,37.07
2022-11-20T08:28:19.851Z,39.60
2022-11-20T08:31:24.403Z,37.83
2022-11-20T08:34:26.474Z,37.47
2022-11-20T08:37:28.572Z,36.80
2022-11-20T08:40:30.658Z,39.63
2022-11-20T08:43:32.799Z,41.53
2022-11-20T08:46:40.506Z,36.60
2022-11-20T08:49:42.622Z,36.83
2022-11-20T08:52:45.356Z,38.30
2022-11-20T08:55:47.662Z,38.40
2022-11-20T09:02:13.621Z,35.13
2022-11-20T09:05:15.751Z,39.47
2022-11-20T09:08:17.793Z,37.97
2022-11-20T09:11:19.848Z,33.57
2022-11-20T09:14:22.563Z,37.33
2022-11-20T09:17:24.655Z,37.57
2022-11-20T09:20:28.178Z,35.40
2022-11-20T09:23:35.287Z,36.43
2022-11-20T09:26:37.324Z,35.43
2022-11-20T09:29:39.542Z,34.93
2022-11-20T09:32:42.276Z,36.10
2022-11-20T09:35:45.528Z,35.47
2022-11-20T09:38:48.459Z,36.07
2022-11-20T09:41:53.521Z,38.03
2022-11-20T09:45:06.788Z,40.50
2022-11-20T09:48:21.382Z,32.97
2022-11-20T09:51:54.930Z,33.40
2022-11-20T09:54:57.979Z,36.80
2022-11-20T09:58:01.042Z,35.37
2022-11-20T10:01:12.779Z,37.17
2022-11-20T10:04:19.379Z,38.03
2022-11-20T10:07:33.143Z,36.00
2022-11-20T10:11:02.378Z,34.73
2022-11-20T10:14:30.148Z,32.97
2022-11-20T10:18:04.995Z,35.53
2022-11-20T10:21:31.022Z,32.57
2022-11-20T10:24:35.603Z,36.60
2022-11-20T10:28:14.927Z,33.70
2022-11-20T10:31:34.688Z,33.73
2022-11-20T10:34:43.013Z,34.33
2022-11-20T10:37:56.827Z,36.40
2022-11-20T10:41:21.380Z,34.50
2022-11-20T10:44:47.423Z,38.30
2022-11-20T10:48:11.527Z,34.07
2022-11-20T10:51:19.240Z,34.10
2022-11-20T10:54:41.249Z,36.37
2022-11-20T10:57:57.841Z,37.53
2022-11-20T11:01:27.796Z,35.93
2022-11-20T11:04:30.172Z,37.33
2022-11-20T11:07:38.013Z,37.97
2022-11-20T11:11:09.557Z,32.53
2022-11-20T11:14:14.531Z,33.90
2022-11-20T11:17:35.618Z,31.67
2022-11-20T11:20:38.252Z,31.50
2022-11-20T11:23:44.221Z,30.77
2022-11-20T11:26:57.508Z,33.93
2022-11-20T11:30:14.369Z,34.47
2022-11-20T11:33:29.030Z,31.47
2022-11-20T11:36:31.634Z,34.13
2022-11-20T11:39:35.215Z,31.40
2022-11-20T11:42:47.949Z,31.63
2022-11-20T11:45:57.332Z,31.40
2022-11-20T11:49:06.584Z,34.13
2022-11-20T11:52:18.067Z,30.37
2022-11-20T11:55:58.254Z,29.63
2022-11-20T11:59:07.528Z,29.20
2022-11-20T12:02:30.625Z,31.37
2022-11-20T12:05:41.340Z,27.37
2022-11-20T12:08:57.136Z,29.63
2022-11-20T12:12:24.139Z,28.83
2022-11-20T12:15:35.618Z,28.00
2022-11-20T12:18:39.337Z,26.07
2022-11-20T12:22:15.519Z,21.50
2022-11-20T12:25:37.359Z,13.37
2022-11-20T12:28:59.464Z,8.73
2022-11-20T12:32:11.333Z,2.83
2022-11-20T12:35:43.335Z,2.93
2022-11-20T12:39:01.265Z,2.83
2022-11-20T12:42:40.664Z,4.80
2022-11-20T12:46:02.196Z,3.43
2022-11-20T12:49:20.012Z,1.80
2022-11-20T12:52:40.875Z,1.90
2022-11-20T12:56:05.809Z,2.00
2022-11-20T12:59:18.111Z,1.83
2022-11-20T13:02:20.783Z,2.53
2022-11-20T13:05:33.850Z,1.40
2022-11-20T13:08:40.159Z,1.43
2022-11-20T13:12:09.760Z,1.47
2022-11-20T13:15:44.913Z,2.40
2022-11-20T13:18:49.080Z,1.53
2022-11-20T13:21:52.169Z,1.47
2022-11-20T13:24:55.140Z,1.77
2022-11-20T13:28:00.004Z,1.20
2022-11-20T13:31:02.370Z,1.83
2022-11-20T13:34:07.790Z,2.33
2022-11-20T13:37:27.926Z,1.30
2022-11-20T13:40:30.400Z,1.60
2022-11-20T13:43:38.844Z,1.70
2022-11-20T13:46:48.745Z,3.23
2022-11-20T13:49:53.393Z,2.00
2022-11-20T13:53:34.477Z,1.80
2022-11-20T13:56:53.246Z,1.50
2022-11-20T13:59:59.739Z,3.33
2022-11-20T14:03:13.814Z,2.20
2022-11-20T14:06:34.263Z,3.13
2022-11-20T14:09:37.561Z,1.53
2022-11-20T14:12:40.494Z,3.33
2022-11-20T14:15:45.765Z,1.30
2022-11-20T14:18:48.799Z,2.33
2022-11-20T14:21:55.780Z,1.33
2022-11-20T14:25:08.683Z,1.30
2022-11-20T14:28:41.689Z,1.73
2022-11-20T14:31:49.968Z,3.17
2022-11-20T14:35:10.275Z,1.73
2022-11-20T14:38:18.917Z,1.70
2022-11-20T14:41:27.966Z,1.77
2022-11-20T14:44:38.804Z,2.30
2022-11-20T14:47:42.947Z,1.40
2022-11-20T14:50:46.350Z,1.43
2022-11-20T14:53:49.241Z,1.37
2022-11-20T14:57:03.895Z,1.90
2022-11-20T15:00:23.121Z,0.87
2022-11-20T15:03:40.595Z,1.10
2022-11-20T15:06:54.129Z,1.10
2022-11-20T15:10:42.393Z,1.00
2022-11-20T15:13:44.862Z,0.70
2022-11-20T15:16:47.729Z,0.70
2022-11-20T15:19:50.630Z,1.60
2022-11-20T15:22:53.374Z,2.00
2022-11-20T15:25:57.505Z,1.63
2022-11-20T15:29:00.752Z,1.80
2022-11-20T15:32:06.885Z,2.30
2022-11-20T15:35:12.487Z,2.80
2022-11-20T15:38:15.363Z,1.70
2022-11-20T15:41:18.333Z,1.20
2022-11-20T15:44:21.270Z,1.60
2022-11-20T15:47:29.020Z,1.37
2022-11-20T15:50:44.087Z,1.97
2022-11-20T15:53:51.527Z,1.80
2022-11-20T15:56:54.489Z,1.00
2022-11-20T15:59:58.936Z,1.10
2022-11-20T16:03:02.125Z,0.70
2022-11-20T16:06:04.779Z,2.53
2022-11-20T16:09:10.269Z,0.80
2022-11-20T16:12:33.160Z,0.80
2022-11-20T16:15:48.447Z,2.17
2022-11-20T16:18:52.333Z,6.13
2022-11-20T16:22:01.192Z,2.73
2022-11-20T16:25:06.243Z,6.20
2022-11-20T16:28:14.666Z,3.60
2022-11-20T16:31:21.506Z,1.33
2022-11-20T16:34:25.163Z,3.13
2022-11-20T16:37:28.711Z,4.70
2022-11-20T16:40:31.993Z,0.97
2022-11-20T16:43:35.208Z,4.33
2022-11-20T16:46:41.476Z,0.50
2022-11-20T16:49:44.580Z,0.77
2022-11-20T16:52:47.527Z,2.87
2022-11-20T16:55:50.826Z,0.97
2022-11-20T16:58:56.973Z,0.80
2022-11-20T17:02:00.099Z,1.07
2022-11-20T17:05:03.359Z,1.70
2022-11-20T17:08:06.994Z,1.93
2022-11-20T17:11:11.854Z,3.77
2022-11-20T17:14:14.642Z,2.83
2022-11-20T17:17:17.500Z,2.60
2022-11-20T17:20:23.180Z,3.70
2022-11-20T17:23:31.322Z,5.83
2022-11-20T17:26:35.906Z,4.33
2022-11-20T17:29:42.218Z,6.77
2022-11-20T17:32:47.684Z,7.23
2022-11-20T17:35:52.720Z,10.17
2022-11-20T17:38:56.138Z,8.97
2022-11-20T17:42:18.382Z,4.43
2022-11-20T17:45:21.484Z,7.33
2022-11-20T17:48:24.716Z,6.40
2022-11-20T17:51:30.110Z,5.60
2022-11-20T17:54:33.729Z,7.07
2022-11-20T17:57:57.148Z,6.93
2022-11-20T18:01:06.422Z,6.27
2022-11-20T18:04:09.953Z,4.60
2022-11-20T18:07:12.764Z,7.77
2022-11-20T18:10:17.017Z,6.33
2022-11-20T18:13:19.837Z,7.00
2022-11-20T18:16:22.832Z,7.53
2022-11-20T18:19:32.121Z,9.67
2022-11-20T18:22:36.250Z,6.97
2022-11-20T18:25:40.979Z,5.53
2022-11-20T18:28:46.715Z,4.97
2022-11-20T18:31:50.251Z,6.77
2022-11-20T18:34:53.733Z,4.83
2022-11-20T18:37:56.370Z,7.03
2022-11-20T18:41:03.926Z,5.77
2022-11-20T18:44:32.333Z,4.23
2022-11-20T18:47:38.661Z,7.17
2022-11-20T18:50:41.960Z,7.03
2022-11-20T18:53:47.692Z,5.10
2022-11-20T18:56:51.376Z,6.77
2022-11-20T19:00:07.893Z,6.13
2022-11-20T19:03:12.348Z,5.17
2022-11-20T19:06:15.044Z,4.60
2022-11-20T19:09:20.568Z,6.47
2022-11-20T19:12:25.156Z,5.50
2022-11-20T19:15:28.458Z,4.30
2022-11-20T19:18:31.714Z,6.10
2022-11-20T19:21:35.822Z,4.30
2022-11-20T19:24:43.380Z,7.67
2022-11-20T19:27:46.484Z,2.70
2022-11-20T19:30:49.306Z,5.07
2022-11-20T19:33:56.577Z,4.30
2022-11-20T19:37:01.253Z,3.27
2022-11-20T19:40:06.028Z,3.33
2022-11-20T19:43:12.793Z,2.23
2022-11-20T19:46:17.513Z,1.80
2022-11-20T19:49:20.872Z,2.27
2022-11-20T19:52:23.912Z,4.10
2022-11-20T19:55:27.439Z,1.87
2022-11-20T19:58:31.723Z,1.77
2022-11-20T20:01:36.024Z,3.87
2022-11-20T20:04:39.329Z,1.53
2022-11-20T20:07:42.730Z,2.33
2022-11-20T20:10:45.527Z,1.40
2022-11-20T20:13:48.982Z,2.10
2022-11-20T20:16:52.776Z,2.50
2022-11-20T20:19:55.745Z,2.57
2022-11-20T20:22:59.000Z,1.47
2022-11-20T20:26:05.077Z,1.47
2022-11-20T20:29:08.254Z,2.17
2022-11-20T20:32:13.031Z,1.83
2022-11-20T20:35:17.406Z,3.43
2022-11-20T20:38:22.895Z,2.67
2022-11-20T20:41:25.704Z,1.43
2022-11-20T20:44:46.867Z,2.50
2022-11-20T20:47:49.634Z,2.00
2022-11-20T20:51:04.437Z,2.33
2022-11-20T20:54:07.266Z,1.93
2022-11-20T20:57:10.498Z,1.77
2022-11-20T21:00:15.117Z,2.00
2022-11-20T21:03:19.246Z,1.83
2022-11-20T21:06:21.759Z,1.47
2022-11-20T21:09:24.856Z,2.17
2022-11-20T21:12:27.660Z,1.83
2022-11-20T21:15:30.515Z,1.20
2022-11-20T21:18:34.661Z,3.57
2022-11-20T21:21:56.675Z,2.10
2022-11-20T21:24:59.724Z,1.90
2022-11-20T21:28:03.436Z,2.43
2022-11-20T21:31:08.501Z,2.30
2022-11-20T21:34:13.420Z,2.60
2022-11-20T21:37:15.832Z,2.93
2022-11-20T21:40:18.239Z,1.53
2022-11-20T21:43:20.483Z,1.90
2022-11-20T21:46:22.880Z,2.90
2022-11-20T21:49:25.383Z,3.73
2022-11-20T21:52:27.732Z,1.40
2022-11-20T21:55:29.833Z,2.57
2022-11-20T21:58:32.196Z,1.27
2022-11-20T22:01:35.063Z,1.63
2022-11-20T22:04:37.157Z,1.97
2022-11-20T22:07:44.687Z,1.90
2022-11-20T22:10:55.078Z,1.30
2022-11-20T22:14:15.915Z,1.80
2022-11-20T22:17:37.972Z,1.43
2022-11-20T22:20:41.146Z,1.77
2022-11-20T22:23:43.307Z,1.40
2022-11-20T22:26:45.821Z,2.30
2022-11-20T22:29:47.948Z,2.80
2022-11-20T22:32:50.506Z,1.70
2022-11-20T22:35:52.533Z,3.93
2022-11-20T22:38:55.534Z,1.20
2022-11-20T22:41:57.608Z,1.90
2022-11-20T22:44:59.631Z,1.90
2022-11-20T22:48:01.737Z,3.20
2022-11-20T22:51:17.538Z,1.40
2022-11-20T22:54:19.659Z,1.17
2022-11-20T22:57:21.704Z,1.40
2022-11-20T23:00:23.901Z,1.07
2022-11-20T23:03:26.116Z,1.20
2022-11-20T23:06:28.761Z,1.50
2022-11-20T23:09:30.939Z,0.90
2022-11-20T23:12:33.020Z,1.30
2022-11-20T23:15:35.599Z,1.40
2022-11-20T23:18:38.508Z,1.20
2022-11-20T23:21:42.224Z,2.73
2022-11-20T23:24:44.265Z,1.13
2022-11-20T23:27:46.338Z,1.27
2022-11-20T23:30:48.350Z,1.37
2022-11-20T23:33:50.949Z,0.90
2022-11-20T23:36:52.952Z,1.40
2022-11-20T23:39:55.092Z,2.33
2022-11-20T23:43:15.192Z,2.40
2022-11-20T23:46:17.413Z,1.73
2022-11-20T23:49:19.429Z,1.57
2022-11-20T23:52:22.412Z,1.30
2022-11-20T23:55:24.473Z,3.53
2022-11-20T23:58:35.344Z,1.87
